Time;durP1;ratioP1;P1;durP2;ratioP2;P2;SDS_P1;SDS_P2;PMS_P1;PMS_P2;Temp;Humidity;BMP_temperature;BMP_pressure;BME280_temperature;BME280_humidity;BME280_pressure;Samples;Min_cycle;Max_cycle;Signal;HPM_P1;HPM_P2
2021/12/22 00:00:55;;;;;;;3.00;1.48;;;19.00;49.40;;;;;;4988056;28;20137;-81
2021/12/22 00:03:22;;;;;;;3.33;1.45;;;19.00;49.40;;;;;;4988384;28;20146;-82
2021/12/22 00:05:50;;;;;;;3.70;1.67;;;19.00;49.30;;;;;;4988558;28;20043;-82
2021/12/22 00:08:17;;;;;;;3.55;1.70;;;19.00;49.40;;;;;;4989441;28;20410;-81
2021/12/22 00:10:43;;;;;;;3.45;1.60;;;19.00;49.40;;;;;;4989717;28;20921;-81
2021/12/22 00:13:09;;;;;;;3.97;1.80;;;19.00;49.50;;;;;;4992523;28;20054;-82
2021/12/22 00:15:34;;;;;;;3.45;1.65;;;19.00;49.40;;;;;;4991826;28;20500;-82
2021/12/22 00:18:00;;;;;;;3.00;1.50;;;19.00;49.70;;;;;;4992430;28;20057;-82
2021/12/22 00:20:26;;;;;;;2.95;1.65;;;19.00;49.40;;;;;;5004914;28;20066;-82
2021/12/22 00:22:51;;;;;;;3.13;1.77;;;19.00;49.40;;;;;;5011063;28;20050;-81
2021/12/22 00:25:17;;;;;;;2.90;1.63;;;19.00;49.40;;;;;;5011620;28;20057;-82
2021/12/22 00:27:42;;;;;;;3.78;1.70;;;19.00;49.40;;;;;;5011729;28;20046;-81
2021/12/22 00:30:09;;;;;;;3.20;1.90;;;19.00;49.40;;;;;;5011072;28;20367;-82
2021/12/22 00:32:36;;;;;;;2.85;1.50;;;19.00;49.40;;;;;;5028138;28;20046;-82
2021/12/22 00:35:02;;;;;;;3.45;1.88;;;19.00;49.40;;;;;;5011769;28;20054;-81
2021/12/22 00:37:28;;;;;;;3.10;1.70;;;19.00;49.40;;;;;;5011877;28;20137;-82
2021/12/22 00:39:54;;;;;;;2.85;1.65;;;19.40;49.60;;;;;;5011221;28;20030;-82
2021/12/22 00:42:20;;;;;;;3.13;1.80;;;18.90;49.40;;;;;;5011230;28;20056;-82
2021/12/22 00:44:49;;;;;;;3.35;1.75;;;18.90;49.40;;;;;;5010372;28;20545;-81
2021/12/22 00:47:16;;;;;;;2.72;1.52;;;18.90;49.40;;;;;;5011292;28;20524;-82
2021/12/22 00:49:41;;;;;;;3.10;1.52;;;18.90;49.40;;;;;;5011155;28;20060;-82
2021/12/22 00:52:07;;;;;;;3.38;1.90;;;18.90;49.40;;;;;;5011074;28;20042;-82
2021/12/22 00:54:32;;;;;;;2.95;1.65;;;18.90;49.40;;;;;;5010290;28;20128;-82
2021/12/22 00:57:04;;;;;;;3.22;1.80;;;18.90;49.40;;;;;;5010535;28;20038;-82
2021/12/22 00:59:33;;;;;;;3.40;1.63;;;18.90;49.40;;;;;;5010775;28;20057;-82
2021/12/22 01:01:59;;;;;;;3.53;1.98;;;18.90;49.40;;;;;;5011126;28;20107;-82
2021/12/22 01:04:25;;;;;;;3.50;2.03;;;18.90;49.40;;;;;;5010624;28;20417;-82
2021/12/22 01:06:50;;;;;;;3.55;1.73;;;18.90;49.40;;;;;;5010580;28;20041;-82
2021/12/22 01:09:16;;;;;;;2.97;1.75;;;18.90;49.40;;;;;;4978496;28;20068;-82
2021/12/22 01:11:41;;;;;;;4.28;1.77;;;18.90;49.40;;;;;;4990495;28;20161;-82
2021/12/22 01:14:07;;;;;;;3.10;1.80;;;18.80;49.30;;;;;;4990992;28;20409;-82
2021/12/22 01:16:33;;;;;;;3.28;1.83;;;18.80;49.30;;;;;;4991073;28;20125;-82
2021/12/22 01:19:02;;;;;;;2.83;1.52;;;18.80;49.30;;;;;;4991548;28;20053;-81
2021/12/22 01:21:38;;;;;;;3.08;1.50;;;18.80;49.40;;;;;;5010607;28;20061;-82
2021/12/22 01:24:15;;;;;;;4.00;1.92;;;18.80;49.40;;;;;;5010411;28;20060;-82
2021/12/22 01:26:46;;;;;;;3.75;2.15;;;18.80;49.40;;;;;;5010095;28;20056;-82
2021/12/22 01:29:14;;;;;;;4.32;2.13;;;18.80;49.40;;;;;;4994666;28;20594;-82
2021/12/22 01:31:41;;;;;;;3.78;1.83;;;19.50;49.80;;;;;;5010063;28;20085;-82
2021/12/22 01:34:07;;;;;;;3.75;2.15;;;18.80;49.40;;;;;;5010353;28;20565;-82
2021/12/22 01:36:33;;;;;;;3.08;1.73;;;18.80;49.40;;;;;;5010432;28;20489;-82
2021/12/22 01:38:58;;;;;;;3.25;1.70;;;19.50;49.70;;;;;;5009700;28;20046;-82
2021/12/22 01:41:24;;;;;;;2.90;1.70;;;18.80;49.40;;;;;;5010221;28;20049;-82
2021/12/22 01:43:50;;;;;;;4.07;1.85;;;18.80;49.40;;;;;;4993917;28;20132;-82
2021/12/22 01:49:15;;;;;;;3.72;2.00;;;18.80;49.40;;;;;;5009855;28;20497;-82
2021/12/22 01:51:44;;;;;;;3.00;1.80;;;18.80;49.40;;;;;;5010121;28;20719;-82
2021/12/22 01:54:24;;;;;;;3.08;1.60;;;18.80;49.40;;;;;;5009320;28;20056;-82
2021/12/22 01:56:50;;;;;;;3.45;2.10;;;18.80;49.40;;;;;;5009780;28;20141;-82
2021/12/22 01:59:16;;;;;;;4.05;1.88;;;18.80;49.40;;;;;;5009758;28;20053;-82
2021/12/22 02:01:42;;;;;;;3.92;1.90;;;18.80;49.40;;;;;;5009261;28;20061;-82
2021/12/22 02:04:12;;;;;;;3.13;1.80;;;18.80;49.40;;;;;;5009570;28;20042;-83
2021/12/22 02:06:39;;;;;;;3.65;1.77;;;18.80;49.40;;;;;;5009878;28;20049;-82
2021/12/22 02:09:05;;;;;;;3.92;2.20;;;18.70;49.30;;;;;;5008943;28;20092;-81
2021/12/22 02:11:30;;;;;;;3.67;1.92;;;18.70;49.30;;;;;;5009748;28;20050;-81
2021/12/22 02:14:00;;;;;;;3.53;1.98;;;18.70;49.40;;;;;;5009106;28;20058;-82
2021/12/22 02:16:32;;;;;;;4.07;2.22;;;18.70;49.30;;;;;;5009259;28;20551;-82
2021/12/22 02:18:59;;;;;;;2.92;1.40;;;18.70;49.30;;;;;;5009485;28;20537;-82
2021/12/22 02:21:28;;;;;;;4.25;2.17;;;18.70;49.40;;;;;;5008817;28;20401;-81
2021/12/22 02:23:56;;;;;;;4.10;1.83;;;18.70;49.30;;;;;;5008924;28;20053;-82
2021/12/22 02:26:29;;;;;;;3.97;1.98;;;18.70;49.30;;;;;;5009419;28;20497;-81
2021/12/22 02:29:01;;;;;;;4.13;2.28;;;18.70;49.30;;;;;;5010562;28;20335;-81
2021/12/22 02:31:27;;;;;;;;;;;18.70;49.30;;;;;;5012995;28;20053;-81
2021/12/22 02:33:53;;;;;;;3.53;1.98;;;18.70;49.30;;;;;;5028735;28;19921;-81
2021/12/22 02:36:27;;;;;;;3.45;1.88;;;18.70;49.30;;;;;;5008150;28;20064;-82
2021/12/22 02:38:57;;;;;;;3.50;2.00;;;18.70;49.30;;;;;;5012521;28;20057;-81
2021/12/22 02:41:26;;;;;;;3.40;1.70;;;18.70;49.30;;;;;;5029844;28;20130;-81
2021/12/22 02:43:54;;;;;;;4.10;2.10;;;19.00;49.50;;;;;;5011876;28;20072;-82
2021/12/22 02:46:29;;;;;;;3.15;1.73;;;18.80;49.50;;;;;;5028929;28;20045;-82
2021/12/22 02:48:54;;;;;;;3.25;1.65;;;18.70;49.30;;;;;;5012001;28;20589;-82
2021/12/22 02:51:20;;;;;;;3.15;1.58;;;18.70;49.30;;;;;;5011474;28;20042;-81
2021/12/22 02:54:12;;;;;;;3.15;1.60;;;18.60;49.30;;;;;;5011884;28;20046;-82
2021/12/22 02:56:51;;;;;;;3.00;1.70;;;18.70;49.40;;;;;;5028251;28;20049;-81
2021/12/22 02:59:49;;;;;;;3.33;2.00;;;18.80;49.40;;;;;;4665582;28;10000520;-82
2021/12/22 03:02:37;;;;;;;3.05;1.75;;;19.20;49.60;;;;;;5010593;28;20045;-82
2021/12/22 03:05:04;;;;;;;3.08;1.92;;;18.70;49.30;;;;;;5011735;28;20057;-81
2021/12/22 03:07:31;;;;;;;4.55;2.03;;;18.60;49.20;;;;;;5011659;28;20053;-81
2021/12/22 03:10:17;;;;;;;4.15;1.95;;;18.60;49.30;;;;;;5012004;28;20061;-82
2021/12/22 03:12:43;;;;;;;4.45;2.13;;;18.60;49.20;;;;;;5011902;28;20049;-81
2021/12/22 03:15:09;;;;;;;2.50;1.42;;;18.60;49.20;;;;;;5028211;28;20061;-81
2021/12/22 03:17:35;;;;;;;3.20;1.88;;;18.60;49.20;;;;;;5011329;28;20413;-81
2021/12/22 03:20:02;;;;;;;3.55;2.00;;;18.60;49.20;;;;;;5031174;28;20709;-81
2021/12/22 03:22:27;;;;;;;3.45;1.70;;;18.60;49.20;;;;;;5011714;28;20045;-83
2021/12/22 03:24:53;;;;;;;3.00;1.65;;;18.60;49.20;;;;;;5006128;28;20046;-81
2021/12/22 03:27:19;;;;;;;3.33;1.48;;;18.60;49.20;;;;;;4991879;28;20041;-82
2021/12/22 03:29:46;;;;;;;2.70;1.58;;;18.60;49.20;;;;;;5009738;28;20061;-81
2021/12/22 03:32:12;;;;;;;2.83;1.60;;;18.60;49.20;;;;;;4991354;28;20064;-81
2021/12/22 03:34:39;;;;;;;3.08;1.67;;;18.60;49.20;;;;;;4991997;28;20050;-81
2021/12/22 03:37:04;;;;;;;3.60;1.95;;;18.60;49.20;;;;;;4992287;28;20049;-82
2021/12/22 03:39:30;;;;;;;3.25;1.70;;;18.60;49.20;;;;;;4991268;28;20498;-81
2021/12/22 03:41:55;;;;;;;2.97;1.58;;;18.60;49.20;;;;;;5008476;28;20052;-81
2021/12/22 03:44:21;;;;;;;3.13;1.65;;;18.60;49.20;;;;;;4991916;28;20052;-82
2021/12/22 03:46:47;;;;;;;2.90;1.67;;;18.60;49.20;;;;;;5011528;28;20034;-81
2021/12/22 03:49:13;;;;;;;3.03;1.80;;;18.60;49.20;;;;;;5012117;28;20057;-83
2021/12/22 03:51:39;;;;;;;3.45;1.90;;;18.50;49.20;;;;;;4995977;28;20128;-81
2021/12/22 03:54:05;;;;;;;3.10;1.65;;;18.50;49.20;;;;;;4995419;28;20129;-82
2021/12/22 03:56:31;;;;;;;3.08;1.70;;;18.60;49.20;;;;;;4996079;28;20060;-81
2021/12/22 03:58:56;;;;;;;2.97;1.75;;;18.50;49.20;;;;;;4995902;28;20046;-81
2021/12/22 04:01:22;;;;;;;3.47;1.83;;;18.50;49.20;;;;;;4995398;28;20136;-81
2021/12/22 04:03:51;;;;;;;3.03;1.52;;;18.50;49.20;;;;;;5012446;28;20524;-81
2021/12/22 04:06:17;;;;;;;3.65;1.95;;;18.50;49.20;;;;;;4995535;28;20160;-82
2021/12/22 04:08:42;;;;;;;3.17;1.83;;;18.50;49.20;;;;;;5011077;28;20165;-81
2021/12/22 04:11:08;;;;;;;2.75;1.60;;;18.50;49.20;;;;;;5011743;28;20409;-82
2021/12/22 04:13:33;;;;;;;3.15;1.85;;;18.50;49.20;;;;;;4995176;28;20406;-82
2021/12/22 04:15:59;;;;;;;3.22;1.80;;;19.40;49.60;;;;;;5011757;28;20057;-81
2021/12/22 04:18:24;;;;;;;3.80;2.22;;;18.50;49.20;;;;;;5007626;28;20057;-82
2021/12/22 04:20:50;;;;;;;3.50;1.70;;;18.50;49.20;;;;;;5014294;28;20780;-83
2021/12/22 04:23:16;;;;;;;3.22;1.58;;;19.10;49.50;;;;;;5032466;28;20049;-81
2021/12/22 04:25:42;;;;;;;3.17;1.80;;;18.50;49.20;;;;;;5031106;28;20076;-82
2021/12/22 04:28:09;;;;;;;4.22;2.05;;;18.50;49.20;;;;;;5014258;28;20080;-81
2021/12/22 04:30:37;;;;;;;3.60;2.20;;;18.50;49.20;;;;;;5030932;28;20136;-81
2021/12/22 04:33:02;;;;;;;3.03;1.55;;;18.50;49.20;;;;;;5014695;28;20115;-81
2021/12/22 04:35:28;;;;;;;3.65;2.00;;;18.50;49.20;;;;;;5030557;28;20053;-81
2021/12/22 04:37:54;;;;;;;3.15;1.70;;;18.40;49.10;;;;;;5014851;28;20535;-81
2021/12/22 04:40:19;;;;;;;3.78;2.17;;;18.40;49.10;;;;;;5013591;28;20137;-82
2021/12/22 04:42:45;;;;;;;3.15;1.70;;;18.50;49.20;;;;;;5014068;28;20048;-82
2021/12/22 04:45:11;;;;;;;3.42;1.98;;;18.40;49.10;;;;;;5014191;28;20057;-81
2021/12/22 04:47:37;;;;;;;3.35;1.83;;;18.40;49.10;;;;;;5046468;28;20048;-81
2021/12/22 04:50:09;;;;;;;4.03;2.10;;;19.90;49.90;;;;;;5019820;28;20985;-82
2021/12/22 04:52:42;;;;;;;2.85;1.70;;;18.40;49.10;;;;;;5030964;28;20076;-81
2021/12/22 04:55:08;;;;;;;3.47;2.00;;;18.40;49.10;;;;;;5013869;28;20441;-82
2021/12/22 04:57:33;;;;;;;3.50;2.00;;;18.40;49.10;;;;;;5013251;28;20128;-82
2021/12/22 05:00:00;;;;;;;3.55;2.00;;;18.40;49.10;;;;;;5014501;28;20061;-82
2021/12/22 05:02:26;;;;;;;3.25;1.55;;;18.40;49.10;;;;;;5014186;28;20084;-81
2021/12/22 05:04:52;;;;;;;4.47;2.22;;;18.50;49.10;;;;;;5028516;28;20069;-81
2021/12/22 05:07:17;;;;;;;3.30;1.90;;;18.40;49.10;;;;;;5012408;28;20045;-81
2021/12/22 05:09:43;;;;;;;2.83;1.65;;;18.40;49.10;;;;;;5012580;28;20049;-81
2021/12/22 05:12:09;;;;;;;3.17;1.60;;;18.40;49.10;;;;;;5013809;28;20115;-81
2021/12/22 05:14:34;;;;;;;3.10;1.90;;;18.40;49.10;;;;;;5013983;28;20049;-81
2021/12/22 05:17:02;;;;;;;3.35;1.67;;;18.40;49.10;;;;;;5013501;28;20076;-81
2021/12/22 05:19:28;;;;;;;2.58;1.40;;;18.40;49.10;;;;;;5013462;28;20054;-81
2021/12/22 05:21:54;;;;;;;3.00;1.90;;;19.00;49.50;;;;;;5013973;28;20578;-81
2021/12/22 05:24:19;;;;;;;3.95;1.80;;;18.40;49.20;;;;;;5013301;28;20049;-81
2021/12/22 05:26:45;;;;;;;2.78;1.45;;;18.50;49.30;;;;;;5013750;28;20053;-81
2021/12/22 05:29:12;;;;;;;4.00;1.95;;;18.50;49.30;;;;;;5013729;28;20548;-81
2021/12/22 05:31:37;;;;;;;4.35;2.10;;;18.90;49.50;;;;;;5013073;28;20049;-82
2021/12/22 05:34:03;;;;;;;3.78;1.80;;;18.50;49.30;;;;;;5031446;28;20123;-81
2021/12/22 05:36:28;;;;;;;2.70;1.70;;;18.50;49.30;;;;;;5013864;28;20041;-82
2021/12/22 05:38:54;;;;;;;3.15;1.60;;;18.50;49.30;;;;;;5012911;28;20613;-82
2021/12/22 05:41:19;;;;;;;3.50;1.90;;;18.50;49.30;;;;;;5013458;28;20405;-82
2021/12/22 05:43:45;;;;;;;2.83;1.70;;;18.50;49.40;;;;;;5013496;28;20049;-82
2021/12/22 05:46:10;;;;;;;3.00;1.65;;;18.50;49.40;;;;;;5012418;28;20508;-82
2021/12/22 05:48:36;;;;;;;3.22;1.90;;;18.50;49.30;;;;;;5013032;28;20136;-82
2021/12/22 05:51:02;;;;;;;2.92;1.83;;;18.60;49.40;;;;;;5013215;28;20099;-82
2021/12/22 05:53:28;;;;;;;3.53;1.77;;;18.60;49.30;;;;;;5012465;28;20049;-82
2021/12/22 05:55:54;;;;;;;3.47;1.95;;;18.60;49.30;;;;;;5013002;28;20038;-81
2021/12/22 05:58:20;;;;;;;3.40;1.90;;;18.60;49.30;;;;;;5012998;28;20060;-82
2021/12/22 06:00:45;;;;;;;3.33;1.73;;;18.60;49.30;;;;;;5012242;28;20080;-82
2021/12/22 06:03:11;;;;;;;3.72;1.90;;;18.60;49.20;;;;;;5012946;28;20111;-82
2021/12/22 06:05:37;;;;;;;2.95;1.70;;;18.60;49.90;;;;;;5012938;28;20041;-82
2021/12/22 06:08:04;;;;;;;3.47;1.85;;;18.60;49.90;;;;;;5011305;28;20061;-82
2021/12/22 06:10:30;;;;;;;3.72;2.08;;;18.60;49.20;;;;;;5010082;28;20047;-82
2021/12/22 06:12:55;;;;;;;2.38;1.60;;;18.60;49.20;;;;;;4993180;28;20328;-82
2021/12/22 06:15:21;;;;;;;3.42;1.92;;;18.60;49.20;;;;;;4992749;28;20096;-82
2021/12/22 06:17:53;;;;;;;3.13;1.73;;;18.60;49.20;;;;;;4993378;28;20473;-81
2021/12/22 06:20:18;;;;;;;3.30;1.73;;;18.60;49.10;;;;;;4989272;28;20058;-82
2021/12/22 06:22:44;;;;;;;3.22;1.80;;;18.60;49.10;;;;;;4989559;28;20054;-82
2021/12/22 06:25:09;;;;;;;3.10;1.80;;;18.60;49.10;;;;;;4989717;28;20046;-82
2021/12/22 06:27:35;;;;;;;3.90;1.63;;;18.60;49.10;;;;;;4989076;28;20067;-82
2021/12/22 06:30:00;;;;;;;3.25;1.83;;;18.60;49.10;;;;;;4987678;28;20085;-82
2021/12/22 06:32:26;;;;;;;2.95;1.60;;;18.60;49.10;;;;;;4965425;28;20059;-82
2021/12/22 06:34:52;;;;;;;3.15;1.80;;;18.60;49.00;;;;;;4998926;28;20400;-83
2021/12/22 06:37:17;;;;;;;2.67;1.58;;;18.60;49.00;;;;;;4984040;28;20046;-83
2021/12/22 06:39:43;;;;;;;4.15;2.20;;;18.60;49.00;;;;;;4973421;28;20054;-83
2021/12/22 06:42:08;;;;;;;3.72;2.03;;;18.60;49.00;;;;;;5020587;28;20544;-82
2021/12/22 06:44:34;;;;;;;2.85;1.52;;;18.60;49.00;;;;;;4972832;28;20668;-82
2021/12/22 06:47:00;;;;;;;2.83;1.58;;;18.60;49.00;;;;;;4972945;28;20050;-83
2021/12/22 06:49:25;;;;;;;3.53;1.80;;;18.60;49.00;;;;;;4971836;28;20116;-81
2021/12/22 06:51:51;;;;;;;3.15;1.92;;;18.60;49.00;;;;;;4970772;28;20375;-83
2021/12/22 06:54:16;;;;;;;3.67;1.85;;;18.60;49.00;;;;;;4979894;28;20046;-83
2021/12/22 06:56:42;;;;;;;2.35;1.40;;;18.60;49.00;;;;;;4989387;28;20057;-83
2021/12/22 06:59:08;;;;;;;2.40;1.42;;;18.60;49.00;;;;;;4992569;28;20053;-81
2021/12/22 07:01:35;;;;;;;2.88;1.75;;;18.60;49.00;;;;;;4992267;28;20042;-82
2021/12/22 07:04:00;;;;;;;3.72;2.00;;;18.60;49.00;;;;;;4991878;28;20057;-82
2021/12/22 07:06:26;;;;;;;2.92;1.70;;;20.10;49.80;;;;;;4992734;28;20054;-83
2021/12/22 07:08:52;;;;;;;3.53;1.90;;;18.60;48.90;;;;;;4992653;28;20057;-81
2021/12/22 07:11:17;;;;;;;2.70;1.70;;;18.60;48.90;;;;;;5009408;28;20042;-81
2021/12/22 07:13:43;;;;;;;3.63;2.00;;;18.60;48.90;;;;;;4992318;28;20046;-81
2021/12/22 07:16:09;;;;;;;3.75;2.00;;;18.60;48.90;;;;;;4960301;28;20410;-82
2021/12/22 07:18:34;;;;;;;3.78;1.85;;;18.60;48.90;;;;;;4972103;28;20045;-80
2021/12/22 07:21:00;;;;;;;3.50;1.90;;;18.60;48.90;;;;;;5032678;28;20049;-81
2021/12/22 07:23:26;;;;;;;3.80;1.75;;;18.50;48.80;;;;;;5008349;28;20079;-82
2021/12/22 07:25:51;;;;;;;3.65;1.75;;;18.60;48.80;;;;;;5013453;28;20099;-82
2021/12/22 07:28:17;;;;;;;4.57;2.47;;;18.50;49.50;;;;;;5009573;28;20053;-81
2021/12/22 07:30:43;;;;;;;3.25;1.63;;;18.50;48.80;;;;;;5015145;28;20591;-81
2021/12/22 07:33:08;;;;;;;3.75;1.98;;;18.50;48.80;;;;;;5019752;28;20049;-82
2021/12/22 07:35:58;;;;;;;3.45;1.95;;;18.50;48.80;;;;;;5001884;28;20064;-82
2021/12/22 07:38:31;;;;;;;3.22;1.77;;;18.50;49.50;;;;;;5032977;28;20102;-81
2021/12/22 07:40:58;;;;;;;3.42;1.95;;;19.20;49.10;;;;;;5014867;28;20045;-81
2021/12/22 07:43:24;;;;;;;3.45;1.70;;;18.50;48.70;;;;;;5011056;28;20042;-81
2021/12/22 07:45:50;;;;;;;3.35;1.80;;;18.50;48.70;;;;;;5010741;28;20118;-80
2021/12/22 07:48:15;;;;;;;4.00;1.83;;;18.50;48.70;;;;;;5031145;28;20481;-81
2021/12/22 07:50:41;;;;;;;3.78;1.95;;;19.40;49.20;;;;;;5014494;28;20053;-80
2021/12/22 07:53:06;;;;;;;3.28;1.67;;;20.10;49.60;;;;;;5015216;28;20049;-81
2021/12/22 07:55:32;;;;;;;3.50;1.85;;;18.40;48.60;;;;;;4994793;28;20058;-81
2021/12/22 07:57:57;;;;;;;3.15;1.73;;;18.50;48.70;;;;;;4988521;28;20050;-80
2021/12/22 08:00:23;;;;;;;3.75;2.05;;;18.50;48.70;;;;;;4988046;28;20054;-80
2021/12/22 08:02:48;;;;;;;3.30;1.83;;;18.40;48.70;;;;;;4988264;28;20426;-82
2021/12/22 08:05:14;;;;;;;3.97;2.10;;;19.00;49.00;;;;;;4988185;28;20042;-83
2021/12/22 08:07:39;;;;;;;3.67;1.90;;;19.10;49.10;;;;;;4987580;28;20038;-83
2021/12/22 08:10:06;;;;;;;2.80;1.60;;;18.40;48.60;;;;;;4989849;28;20692;-77
2021/12/22 08:12:32;;;;;;;2.92;1.95;;;18.40;48.70;;;;;;4988820;28;20142;-83
2021/12/22 08:14:57;;;;;;;4.07;2.17;;;18.40;48.60;;;;;;4987135;28;20481;-82
2021/12/22 08:17:23;;;;;;;3.55;1.92;;;19.00;49.00;;;;;;4986353;28;20100;-82
2021/12/22 08:19:49;;;;;;;3.78;1.80;;;18.40;48.60;;;;;;4968829;28;20050;-82
2021/12/22 08:22:15;;;;;;;3.80;1.73;;;19.00;49.00;;;;;;4983562;28;20545;-81
2021/12/22 08:24:40;;;;;;;5.80;2.80;;;18.40;48.60;;;;;;4979242;28;20047;-81
2021/12/22 08:27:06;;;;;;;17.00;4.53;;;18.40;48.50;;;;;;4981685;28;20069;-82
2021/12/22 08:29:31;;;;;;;7.07;3.70;;;18.40;47.90;;;;;;4966440;28;20057;-82
2021/12/22 08:31:57;;;;;;;5.65;3.13;;;18.30;47.80;;;;;;4979141;28;20049;-83
2021/12/22 08:34:27;;;;;;;8.05;3.10;;;18.30;47.90;;;;;;4995800;28;20053;-81
2021/12/22 08:39:37;;;;;;;5.55;2.72;;;18.30;48.10;;;;;;4995882;28;20523;-77
2021/12/22 08:42:03;;;;;;;8.25;3.33;;;18.30;48.20;;;;;;4974416;28;20073;-77
2021/12/22 08:44:29;;;;;;;6.63;3.42;;;18.30;48.20;;;;;;4971287;28;20144;-77
2021/12/22 08:46:55;;;;;;;5.85;3.25;;;18.40;48.10;;;;;;4987832;28;20051;-77
2021/12/22 08:49:21;;;;;;;6.28;3.40;;;18.40;48.10;;;;;;4970899;28;20062;-78
2021/12/22 08:51:47;;;;;;;6.63;3.45;;;18.40;48.10;;;;;;4971925;28;20046;-77
2021/12/22 08:54:13;;;;;;;7.50;3.55;;;18.40;48.10;;;;;;4973108;28;20050;-83
2021/12/22 08:56:39;;;;;;;6.68;3.17;;;19.50;48.60;;;;;;4968227;28;20076;-82
2021/12/22 08:59:05;;;;;;;6.65;3.25;;;18.40;48.10;;;;;;4987355;28;20115;-82
2021/12/22 09:01:31;;;;;;;6.28;3.13;;;19.40;48.70;;;;;;4985242;28;20568;-82
2021/12/22 09:03:56;;;;;;;5.53;2.78;;;18.40;48.20;;;;;;4984345;28;20048;-82
2021/12/22 09:06:22;;;;;;;7.35;2.63;;;18.40;48.20;;;;;;4976277;28;20724;-82
2021/12/22 09:08:47;;;;;;;5.88;2.92;;;18.40;48.20;;;;;;4987647;28;20133;-81
2021/12/22 09:11:13;;;;;;;7.15;3.08;;;18.40;48.20;;;;;;4971167;28;20046;-82
2021/12/22 09:13:39;;;;;;;4.95;2.55;;;18.40;48.20;;;;;;4971854;28;20042;-82
2021/12/22 09:16:05;;;;;;;5.05;2.45;;;18.40;48.20;;;;;;4970945;28;20479;-82
2021/12/22 09:18:31;;;;;;;6.45;2.67;;;18.40;48.20;;;;;;4971020;28;20051;-82
2021/12/22 09:20:56;;;;;;;4.72;2.30;;;18.40;48.20;;;;;;4987701;28;20065;-82
2021/12/22 09:23:22;;;;;;;5.13;2.55;;;18.40;48.20;;;;;;4989393;28;20490;-82
2021/12/22 09:25:48;;;;;;;5.22;2.65;;;18.40;48.20;;;;;;4990904;28;20077;-81
2021/12/22 09:28:14;;;;;;;4.90;2.72;;;18.40;48.20;;;;;;4992988;28;20042;-81
2021/12/22 09:30:43;;;;;;;4.93;2.75;;;18.40;48.20;;;;;;4990762;28;20108;-82
2021/12/22 09:33:11;;;;;;;6.95;2.65;;;18.40;48.20;;;;;;4993884;28;20482;-82
2021/12/22 09:35:37;;;;;;;3.88;2.47;;;18.40;48.30;;;;;;4989728;28;20085;-82
2021/12/22 09:38:02;;;;;;;5.03;2.10;;;18.40;48.30;;;;;;5020679;28;20141;-82
2021/12/22 09:40:28;;;;;;;4.90;2.60;;;18.40;48.30;;;;;;4998687;28;20172;-82
2021/12/22 09:42:54;;;;;;;4.10;2.17;;;18.40;48.20;;;;;;4989676;28;20065;-82
2021/12/22 09:45:21;;;;;;;3.65;2.17;;;18.40;48.20;;;;;;5007925;28;20474;-83
2021/12/22 09:53:25;;;;;;;4.93;2.30;;;18.50;48.40;;;;;;4947999;28;20074;-83
2021/12/22 09:55:51;;;;;;;4.18;2.72;;;18.50;48.40;;;;;;4992053;28;20103;-83
2021/12/22 09:58:16;;;;;;;5.30;2.30;;;18.50;48.50;;;;;;4998246;28;20038;-85
2021/12/22 10:00:43;;;;;;;5.05;2.53;;;18.50;48.60;;;;;;5000160;28;20453;-84
2021/12/22 10:03:09;;;;;;;3.85;2.10;;;18.50;48.70;;;;;;4994880;28;20053;-83
2021/12/22 10:05:35;;;;;;;4.57;2.63;;;18.50;48.70;;;;;;4997825;28;20634;-83
2021/12/22 10:08:11;;;;;;;37.15;14.45;;;18.50;48.60;;;;;;4991415;28;20065;-82
2021/12/22 10:10:38;;;;;;;45.67;16.95;;;18.50;48.70;;;;;;4989841;28;20053;-82
2021/12/22 10:13:13;;;;;;;43.83;17.15;;;18.60;48.60;;;;;;5021182;28;20074;-83
2021/12/22 10:15:39;;;;;;;104.65;39.58;;;18.60;48.60;;;;;;4989751;28;20046;-85
2021/12/22 10:18:15;;;;;;;198.32;67.22;;;18.60;48.70;;;;;;4990555;28;20038;-81
2021/12/22 10:20:42;;;;;;;214.48;78.95;;;18.60;48.80;;;;;;4995723;28;20048;-82
2021/12/22 10:23:24;;;;;;;214.75;74.43;;;18.60;48.80;;;;;;5005241;28;20560;-82
2021/12/22 10:25:53;;;;;;;184.73;63.35;;;18.70;48.90;;;;;;5004703;28;20045;-81
2021/12/22 10:28:19;;;;;;;173.82;64.32;;;18.70;48.80;;;;;;4991850;28;20549;-82
2021/12/22 10:30:45;;;;;;;223.88;81.75;;;18.70;48.90;;;;;;5024517;28;20054;-82
2021/12/22 10:33:18;;;;;;;230.63;85.20;;;18.70;48.90;;;;;;5025161;28;20038;-83
2021/12/22 10:35:46;;;;;;;291.65;103.47;;;18.70;48.90;;;;;;4992371;28;20085;-84
2021/12/22 10:38:13;;;;;;;296.63;103.05;;;18.70;49.00;;;;;;4992672;28;20060;-83
2021/12/22 10:40:53;;;;;;;265.85;96.10;;;18.80;49.10;;;;;;4990134;28;20054;-83
2021/12/22 10:43:53;;;;;;;232.52;87.32;;;18.80;49.00;;;;;;4943667;29;20102;-81
2021/12/22 10:46:49;;;;;;;;;;;;;;;;;;;;;
2021/12/22 10:49:37;;;;;;;181.98;67.60;;;17.30;48.10;;;;;;4928607;28;20044;-80
2021/12/22 10:52:03;;;;;;;238.32;91.10;;;20.40;50.10;;;;;;4931949;29;20063;-80
2021/12/22 10:54:31;;;;;;;234.00;89.35;;;18.90;48.90;;;;;;4963496;28;20176;-81
2021/12/22 10:56:57;;;;;;;235.88;87.53;;;18.90;48.80;;;;;;4994843;28;20778;-79
2021/12/22 10:59:23;;;;;;;221.18;83.88;;;18.90;48.80;;;;;;4993763;28;20072;-79
2021/12/22 11:02:07;;;;;;;219.07;78.65;;;19.00;48.90;;;;;;4973947;28;20513;-84
2021/12/22 11:04:37;;;;;;;217.43;74.88;;;19.00;48.80;;;;;;5009157;28;20052;-85
2021/12/22 11:07:20;;;;;;;204.38;75.07;;;19.00;48.80;;;;;;4979201;28;20038;-83
2021/12/22 11:09:45;;;;;;;198.63;72.18;;;19.00;48.80;;;;;;5024346;28;20042;-82
2021/12/22 11:12:13;;;;;;;190.07;71.15;;;19.00;48.80;;;;;;5008261;28;20057;-82
2021/12/22 11:14:40;;;;;;;173.07;68.72;;;19.00;48.70;;;;;;4998765;28;20057;-82
2021/12/22 11:17:13;;;;;;;182.73;68.45;;;19.10;48.70;;;;;;4991083;28;20049;-83
2021/12/22 11:19:48;;;;;;;168.80;65.07;;;19.10;48.70;;;;;;4988352;28;20054;-82
2021/12/22 11:22:15;;;;;;;160.60;63.75;;;19.10;48.70;;;;;;4988066;28;20628;-83
2021/12/22 11:24:48;;;;;;;161.57;64.88;;;19.10;48.70;;;;;;5017885;28;20058;-83
2021/12/22 11:27:25;;;;;;;152.70;59.03;;;19.10;48.70;;;;;;5021446;28;20050;-83
2021/12/22 11:29:54;;;;;;;163.48;64.85;;;19.10;48.70;;;;;;5007948;28;20995;-82
2021/12/22 11:32:21;;;;;;;151.50;58.80;;;19.10;48.60;;;;;;5008485;28;20058;-83
2021/12/22 11:34:51;;;;;;;146.60;60.03;;;19.10;48.50;;;;;;5008117;28;20042;-82
2021/12/22 11:37:17;;;;;;;159.10;59.78;;;19.10;48.50;;;;;;5008097;28;20122;-83
2021/12/22 11:39:43;;;;;;;147.38;58.65;;;19.10;48.50;;;;;;5027162;28;20073;-82
2021/12/22 11:42:10;;;;;;;146.95;58.80;;;19.90;48.90;;;;;;5004666;28;20051;-82
2021/12/22 11:44:36;;;;;;;152.02;57.58;;;19.10;48.50;;;;;;5008032;28;20050;-82
2021/12/22 11:47:04;;;;;;;136.40;53.00;;;20.20;49.00;;;;;;5020004;28;20543;-83
2021/12/22 11:49:34;;;;;;;137.15;54.22;;;19.10;48.40;;;;;;4975311;28;20073;-82
2021/12/22 11:52:03;;;;;;;135.10;54.83;;;19.10;48.30;;;;;;5007376;28;20088;-82
2021/12/22 11:54:28;;;;;;;130.88;52.75;;;19.10;49.10;;;;;;5008080;28;20375;-83
2021/12/22 11:56:56;;;;;;;128.10;48.85;;;19.10;48.30;;;;;;4986960;28;20050;-83
2021/12/22 11:59:36;;;;;;;127.75;51.67;;;19.10;48.30;;;;;;4984477;28;20459;-82
2021/12/22 12:02:33;;;;;;;121.22;49.42;;;19.10;48.30;;;;;;4987334;28;20048;-83
2021/12/22 12:05:20;;;;;;;120.25;48.10;;;19.10;48.30;;;;;;4999043;28;20106;-82
2021/12/22 12:07:49;;;;;;;110.68;44.95;;;19.00;48.20;;;;;;4988832;28;20048;-82
2021/12/22 12:10:41;;;;;;;114.00;44.90;;;19.10;48.30;;;;;;4990708;28;20043;-83
2021/12/22 12:13:21;;;;;;;117.65;46.45;;;19.00;48.20;;;;;;4991250;28;20133;-83
2021/12/22 12:21:59;;;;;;;102.78;42.35;;;19.00;48.20;;;;;;5030411;28;20049;-83
2021/12/22 12:24:46;;;;;;;101.07;41.33;;;19.00;48.30;;;;;;5031030;28;20131;-83
2021/12/22 12:27:32;;;;;;;93.70;40.03;;;19.00;48.20;;;;;;5014315;28;20140;-83
2021/12/22 12:29:59;;;;;;;90.95;38.38;;;19.00;48.30;;;;;;5030802;28;20041;-81
2021/12/22 12:32:40;;;;;;;92.20;37.08;;;19.00;48.20;;;;;;5014725;28;20472;-81
2021/12/22 12:35:18;;;;;;;88.30;35.45;;;19.00;48.20;;;;;;5013905;28;20136;-82
2021/12/22 12:38:07;;;;;;;83.22;35.67;;;19.00;48.10;;;;;;5012285;28;20551;-82
2021/12/22 12:40:55;;;;;;;81.13;34.40;;;19.00;48.10;;;;;;5032057;28;20049;-82
2021/12/22 12:43:46;;;;;;;59.63;25.67;;;19.00;48.20;;;;;;4999869;28;20057;-78
2021/12/22 12:46:24;;;;;;;59.28;23.38;;;18.80;47.70;;;;;;5013389;28;20100;-79
2021/12/22 12:48:52;;;;;;;56.17;25.20;;;19.00;47.70;;;;;;5029445;28;20049;-80
2021/12/22 12:51:29;;;;;;;56.70;25.52;;;18.90;47.50;;;;;;5030475;28;20093;-80
2021/12/22 12:53:57;;;;;;;60.85;24.98;;;19.00;47.60;;;;;;5031675;28;20050;-80
2021/12/22 12:56:29;;;;;;;57.13;25.55;;;18.90;47.60;;;;;;5031112;28;20057;-79
2021/12/22 12:59:08;;;;;;;61.78;25.15;;;18.90;47.60;;;;;;5015195;28;20473;-81
2021/12/22 13:01:52;;;;;;;61.42;26.05;;;18.90;47.70;;;;;;5022935;28;20107;-78
2021/12/22 13:04:24;;;;;;;59.28;25.83;;;18.90;47.80;;;;;;5032294;28;20045;-80
2021/12/22 13:06:50;;;;;;;61.28;25.45;;;19.00;47.70;;;;;;5031860;28;20165;-80